Time;durP1;ratioP1;P1;durP2;ratioP2;P2;SDS_P1;SDS_P2;PMS_P1;PMS_P2;Temp;Humidity;BMP_temperature;BMP_pressure;BME280_temperature;BME280_humidity;BME280_pressure;Samples;Min_cycle;Max_cycle;Signal;HPM_P1;HPM_P2
2021/06/27 00:00:41;;;;;;;8.57;7.78;;;17.90;99.90;;;;;;5071914;28;20747;-58
2021/06/27 00:03:08;;;;;;;8.55;7.60;;;17.80;99.90;;;;;;5071715;28;20200;-57
2021/06/27 00:05:37;;;;;;;12.43;7.60;;;17.80;99.90;;;;;;5071261;28;20770;-57
2021/06/27 00:08:06;;;;;;;7.78;7.07;;;17.80;99.90;;;;;;5071631;28;20209;-58
2021/06/27 00:10:35;;;;;;;8.45;7.43;;;17.80;99.90;;;;;;5071459;28;20209;-57
2021/06/27 00:13:03;;;;;;;8.65;7.80;;;17.90;99.90;;;;;;5071503;28;20208;-58
2021/06/27 00:15:33;;;;;;;8.20;7.40;;;17.90;99.90;;;;;;5071159;28;20229;-57
2021/06/27 00:18:02;;;;;;;9.65;7.32;;;18.00;99.90;;;;;;5071378;28;20240;-57
2021/06/27 00:20:31;;;;;;;8.48;7.22;;;18.00;99.90;;;;;;5071536;28;20213;-57
2021/06/27 00:22:58;;;;;;;9.45;6.93;;;18.00;99.90;;;;;;5071336;28;20208;-58
2021/06/27 00:25:28;;;;;;;8.10;7.30;;;18.00;99.90;;;;;;5071417;28;20225;-58
2021/06/27 00:27:56;;;;;;;8.00;7.20;;;18.00;99.90;;;;;;5071290;28;20208;-57
2021/06/27 00:30:24;;;;;;;7.57;6.88;;;17.90;99.90;;;;;;5071563;28;20677;-57
2021/06/27 00:32:51;;;;;;;7.47;6.25;;;17.90;99.90;;;;;;5071294;28;20201;-57
2021/06/27 00:35:19;;;;;;;7.47;6.77;;;17.80;99.90;;;;;;5071373;28;20274;-58
2021/06/27 00:37:47;;;;;;;7.57;6.43;;;17.80;99.90;;;;;;5071207;28;20216;-58
2021/06/27 00:40:17;;;;;;;6.93;6.28;;;17.80;99.90;;;;;;5071585;28;20253;-58
2021/06/27 00:42:45;;;;;;;7.53;6.57;;;17.80;99.90;;;;;;5071511;28;20205;-58
2021/06/27 00:45:14;;;;;;;7.28;6.53;;;17.80;99.90;;;;;;5070921;28;20251;-58
2021/06/27 00:47:43;;;;;;;9.15;6.70;;;17.80;99.90;;;;;;5071483;28;20213;-58
2021/06/27 00:50:14;;;;;;;7.13;6.43;;;17.70;99.90;;;;;;5071105;28;20676;-58
2021/06/27 00:52:41;;;;;;;7.85;6.32;;;17.70;99.90;;;;;;5072416;28;20201;-58
2021/06/27 00:55:09;;;;;;;8.63;6.65;;;17.70;99.90;;;;;;5073030;28;20221;-58
2021/06/27 00:57:36;;;;;;;7.38;6.55;;;17.60;99.90;;;;;;5070941;28;20229;-57
2021/06/27 01:00:07;;;;;;;9.88;6.68;;;17.60;99.90;;;;;;5070834;28;20696;-58
2021/06/27 01:02:34;;;;;;;8.55;6.88;;;17.60;99.90;;;;;;5070873;28;20220;-58
2021/06/27 01:05:01;;;;;;;7.80;6.20;;;17.60;99.90;;;;;;5070688;28;20657;-57
2021/06/27 01:07:28;;;;;;;8.77;6.43;;;17.60;99.90;;;;;;5070943;28;20204;-57
2021/06/27 01:09:55;;;;;;;7.43;6.72;;;17.60;99.90;;;;;;5070566;28;20681;-57
2021/06/27 01:12:22;;;;;;;8.20;7.05;;;17.60;99.90;;;;;;5070740;28;20205;-57
2021/06/27 01:14:49;;;;;;;8.07;6.45;;;17.60;99.90;;;;;;5070617;28;20278;-57
2021/06/27 01:17:17;;;;;;;7.70;6.43;;;17.50;99.90;;;;;;5074913;28;20225;-57
2021/06/27 01:19:44;;;;;;;7.67;6.87;;;17.50;99.90;;;;;;5074987;28;20208;-57
2021/06/27 01:22:12;;;;;;;7.43;6.53;;;17.60;99.90;;;;;;5074984;28;20212;-58
2021/06/27 01:24:39;;;;;;;7.33;6.63;;;17.60;99.90;;;;;;5074924;28;20233;-58
2021/06/27 01:27:06;;;;;;;9.00;6.43;;;17.60;99.90;;;;;;5074819;28;20564;-57
2021/06/27 01:29:33;;;;;;;8.63;6.45;;;17.60;99.90;;;;;;5074637;28;20216;-57
2021/06/27 01:32:00;;;;;;;7.10;6.40;;;17.50;99.90;;;;;;5074738;28;20212;-57
2021/06/27 01:34:26;;;;;;;8.93;6.37;;;17.50;99.90;;;;;;5074517;28;20220;-58
2021/06/27 01:36:53;;;;;;;9.73;6.80;;;17.40;99.90;;;;;;5074858;28;20227;-58
2021/06/27 01:39:21;;;;;;;9.18;7.20;;;17.40;99.90;;;;;;5074684;28;20488;-57
2021/06/27 01:41:49;;;;;;;7.25;6.53;;;17.30;99.90;;;;;;5074530;28;20209;-57
2021/06/27 01:44:17;;;;;;;7.40;6.70;;;17.40;99.90;;;;;;5074121;28;20680;-57
2021/06/27 01:46:43;;;;;;;8.80;6.23;;;17.40;99.90;;;;;;5075108;28;20283;-58
2021/06/27 01:49:11;;;;;;;9.60;6.17;;;17.40;99.90;;;;;;5074964;28;20228;-58
2021/06/27 01:51:38;;;;;;;7.63;6.83;;;17.40;99.90;;;;;;5075303;28;20297;-58
2021/06/27 01:54:05;;;;;;;8.30;6.60;;;17.40;99.90;;;;;;5075048;28;20208;-57
2021/06/27 01:56:33;;;;;;;7.18;6.47;;;17.50;99.90;;;;;;5074549;28;20675;-58
2021/06/27 01:59:02;;;;;;;7.37;6.63;;;17.60;99.90;;;;;;5074225;28;20205;-57
2021/06/27 02:01:31;;;;;;;10.13;6.40;;;17.60;99.90;;;;;;5074645;28;20212;-58
2021/06/27 02:03:58;;;;;;;7.57;6.53;;;17.60;99.90;;;;;;5074167;28;20205;-58
2021/06/27 02:06:26;;;;;;;8.63;6.07;;;17.70;99.90;;;;;;5074480;28;20209;-57
2021/06/27 02:08:54;;;;;;;7.95;6.47;;;17.70;99.90;;;;;;5073992;28;20204;-57
2021/06/27 02:11:23;;;;;;;8.10;6.43;;;17.70;99.90;;;;;;5073778;28;20258;-57
2021/06/27 02:13:52;;;;;;;6.80;6.00;;;17.80;99.90;;;;;;5074089;28;20230;-56
2021/06/27 02:16:19;;;;;;;7.50;6.70;;;17.80;99.90;;;;;;5073616;28;20229;-56
2021/06/27 02:18:49;;;;;;;7.53;5.82;;;17.80;99.90;;;;;;5073722;28;20216;-57
2021/06/27 02:21:17;;;;;;;7.20;6.50;;;17.80;99.90;;;;;;5073765;28;20209;-57
2021/06/27 02:23:44;;;;;;;7.57;6.17;;;17.80;99.90;;;;;;5073475;28;20201;-57
2021/06/27 02:26:12;;;;;;;8.98;6.03;;;17.80;99.90;;;;;;5073092;28;20728;-57
2021/06/27 02:28:39;;;;;;;6.67;6.00;;;17.90;99.90;;;;;;5072323;28;20726;-56
2021/06/27 02:31:07;;;;;;;6.57;5.97;;;17.90;99.90;;;;;;5073918;28;20299;-56
2021/06/27 02:33:34;;;;;;;6.70;6.10;;;17.90;99.90;;;;;;5073276;28;20733;-56
2021/06/27 02:36:01;;;;;;;6.43;5.77;;;18.00;99.90;;;;;;5073306;28;20274;-57
2021/06/27 02:38:28;;;;;;;7.30;6.60;;;18.10;99.90;;;;;;5073120;28;20209;-56
2021/06/27 02:40:55;;;;;;;7.17;6.00;;;18.10;99.90;;;;;;5073531;28;20201;-57
2021/06/27 02:43:23;;;;;;;7.57;6.00;;;18.10;99.90;;;;;;5073564;28;20580;-57
2021/06/27 02:45:50;;;;;;;7.82;6.10;;;18.20;99.90;;;;;;5073185;28;20240;-57
2021/06/27 02:48:18;;;;;;;7.72;6.07;;;18.20;99.90;;;;;;5073037;28;20212;-56
2021/06/27 02:50:44;;;;;;;6.97;5.85;;;18.30;99.90;;;;;;5073418;28;20204;-56
2021/06/27 02:53:11;;;;;;;9.98;6.30;;;18.20;99.90;;;;;;5073000;28;20677;-56
2021/06/27 02:55:38;;;;;;;7.80;6.07;;;18.20;99.90;;;;;;5073006;28;20229;-57
2021/06/27 02:58:06;;;;;;;8.30;6.15;;;18.10;99.90;;;;;;5072891;28;20232;-56
2021/06/27 03:00:33;;;;;;;6.47;5.72;;;18.00;99.90;;;;;;5073001;28;20209;-56
2021/06/27 03:03:01;;;;;;;7.63;6.15;;;18.00;99.90;;;;;;5072941;28;20213;-56
2021/06/27 03:05:29;;;;;;;6.80;6.17;;;18.00;99.90;;;;;;5072386;28;20229;-56
2021/06/27 03:07:57;;;;;;;6.80;5.68;;;18.00;99.90;;;;;;5073522;28;20201;-58
2021/06/27 03:10:24;;;;;;;8.10;6.00;;;18.00;99.90;;;;;;5073384;28;20492;-56
2021/06/27 03:12:52;;;;;;;8.05;6.70;;;18.10;99.90;;;;;;5072942;28;20209;-56
2021/06/27 03:15:21;;;;;;;7.53;5.18;;;18.10;99.90;;;;;;5072610;28;20235;-57
2021/06/27 03:17:48;;;;;;;8.05;6.28;;;18.10;99.90;;;;;;5072447;28;20220;-56
2021/06/27 03:20:16;;;;;;;6.68;6.07;;;18.10;99.90;;;;;;5073045;28;20236;-56
2021/06/27 03:22:46;;;;;;;6.18;5.57;;;18.00;99.90;;;;;;5072723;28;20259;-57
2021/06/27 03:25:14;;;;;;;6.75;6.00;;;18.00;99.90;;;;;;5072554;28;20233;-57
2021/06/27 03:27:41;;;;;;;7.78;6.03;;;18.00;99.90;;;;;;5072410;28;20223;-58
2021/06/27 03:30:09;;;;;;;6.70;6.10;;;18.10;99.90;;;;;;5072373;28;20205;-57
2021/06/27 03:32:36;;;;;;;8.85;5.95;;;18.10;99.90;;;;;;5072290;28;20212;-57
2021/06/27 03:35:04;;;;;;;8.18;5.90;;;18.00;99.90;;;;;;5072441;28;20253;-57
2021/06/27 03:37:30;;;;;;;12.13;6.32;;;18.00;99.90;;;;;;5072203;28;20436;-58
2021/06/27 03:39:59;;;;;;;7.05;6.03;;;18.00;99.90;;;;;;5071878;28;20295;-57
2021/06/27 03:42:26;;;;;;;7.53;6.00;;;18.00;99.90;;;;;;5072281;28;20291;-57
2021/06/27 03:44:53;;;;;;;7.72;6.05;;;18.00;99.90;;;;;;5071873;28;20231;-57
2021/06/27 03:47:19;;;;;;;7.38;5.65;;;18.00;99.90;;;;;;5071905;28;20205;-57
2021/06/27 03:49:46;;;;;;;7.63;6.13;;;18.00;99.90;;;;;;5072464;28;20205;-55
2021/06/27 03:52:12;;;;;;;7.53;6.82;;;18.10;99.90;;;;;;5072344;28;20258;-57
2021/06/27 03:54:39;;;;;;;7.28;5.68;;;18.20;99.90;;;;;;5071825;28;20232;-56
2021/06/27 03:57:08;;;;;;;7.65;6.05;;;18.20;99.90;;;;;;5071770;28;20573;-56
2021/06/27 03:59:34;;;;;;;9.23;6.00;;;18.20;99.90;;;;;;5071808;28;20406;-56
2021/06/27 04:02:01;;;;;;;7.20;5.90;;;18.10;99.90;;;;;;5072061;28;20205;-56
2021/06/27 04:04:28;;;;;;;6.78;5.88;;;18.10;99.90;;;;;;5071685;28;20233;-56
2021/06/27 04:06:55;;;;;;;8.02;6.82;;;18.00;99.90;;;;;;5071927;28;20568;-56
2021/06/27 04:09:21;;;;;;;6.90;6.05;;;18.10;99.90;;;;;;5071569;28;20212;-57
2021/06/27 04:11:48;;;;;;;6.43;5.30;;;18.20;99.90;;;;;;5071487;28;20563;-57
2021/06/27 04:14:16;;;;;;;6.47;5.88;;;18.30;99.90;;;;;;5071099;28;20205;-56
2021/06/27 04:16:43;;;;;;;8.05;5.57;;;18.30;99.90;;;;;;5071331;28;20704;-56
2021/06/27 04:19:09;;;;;;;6.05;5.45;;;18.50;99.90;;;;;;5071540;28;20217;-56
2021/06/27 04:21:36;;;;;;;5.85;5.32;;;18.60;99.90;;;;;;5071382;28;20232;-57
2021/06/27 04:24:03;;;;;;;5.47;4.90;;;18.70;99.90;;;;;;5071208;28;20204;-56
2021/06/27 04:26:30;;;;;;;6.30;5.55;;;18.90;99.90;;;;;;5071402;28;20220;-57
2021/06/27 04:28:56;;;;;;;12.38;5.47;;;19.10;99.90;;;;;;5071349;28;20216;-57
2021/06/27 04:31:24;;;;;;;7.07;5.18;;;19.20;99.90;;;;;;5071767;28;20242;-57
2021/06/27 04:33:51;;;;;;;6.82;5.55;;;19.40;99.90;;;;;;5071263;28;20215;-57
2021/06/27 04:36:18;;;;;;;6.18;5.40;;;19.50;99.90;;;;;;5071145;28;20282;-56
2021/06/27 04:38:45;;;;;;;6.68;5.35;;;19.60;99.90;;;;;;5071101;28;20232;-57
2021/06/27 04:41:12;;;;;;;5.57;4.97;;;19.70;99.90;;;;;;5071043;28;20213;-57
2021/06/27 04:43:38;;;;;;;6.05;5.25;;;19.90;99.90;;;;;;5071277;28;20636;-56
2021/06/27 04:46:05;;;;;;;6.43;5.50;;;20.20;99.90;;;;;;5071193;28;20224;-57
2021/06/27 04:48:33;;;;;;;5.22;4.70;;;20.40;99.90;;;;;;5070805;28;20209;-57
2021/06/27 04:51:00;;;;;;;6.22;5.47;;;20.80;99.90;;;;;;5070315;28;20208;-57
2021/06/27 04:53:26;;;;;;;8.93;5.15;;;21.40;99.90;;;;;;5071213;28;20204;-56
2021/06/27 04:55:58;;;;;;;5.43;4.60;;;21.90;99.90;;;;;;5070900;28;20233;-57
2021/06/27 04:58:25;;;;;;;5.50;4.82;;;22.50;99.90;;;;;;5071275;28;20233;-56
2021/06/27 05:00:51;;;;;;;7.13;4.68;;;23.00;99.90;;;;;;5071385;28;20217;-58
2021/06/27 05:03:18;;;;;;;6.90;4.60;;;23.60;99.90;;;;;;5071091;28;20212;-58
2021/06/27 05:05:46;;;;;;;5.50;5.00;;;24.10;99.90;;;;;;5069900;28;20236;-56
2021/06/27 05:08:13;;;;;;;4.60;4.13;;;24.70;99.90;;;;;;5070085;28;20586;-57
2021/06/27 05:10:39;;;;;;;4.85;3.95;;;25.30;99.90;;;;;;5069957;28;20264;-56
2021/06/27 05:13:06;;;;;;;4.45;4.05;;;25.70;99.90;;;;;;5070398;28;20213;-57
2021/06/27 05:15:33;;;;;;;7.13;4.28;;;25.50;99.90;;;;;;5070148;28;20236;-56
2021/06/27 05:17:59;;;;;;;5.07;4.15;;;25.20;99.90;;;;;;5069777;28;20232;-56
2021/06/27 05:20:26;;;;;;;7.97;4.60;;;24.90;99.90;;;;;;5069833;28;20212;-56
2021/06/27 05:22:54;;;;;;;5.07;4.47;;;24.70;99.90;;;;;;5070027;28;20205;-57
2021/06/27 05:25:21;;;;;;;5.00;4.50;;;24.80;99.90;;;;;;5069668;28;20747;-57
2021/06/27 05:27:47;;;;;;;5.50;4.75;;;24.90;99.90;;;;;;5069894;28;20208;-56
2021/06/27 05:30:15;;;;;;;4.70;4.20;;;25.00;99.90;;;;;;5069930;28;20212;-57
2021/06/27 05:32:42;;;;;;;5.65;4.47;;;25.30;99.90;;;;;;5069730;28;20215;-57
2021/06/27 05:35:09;;;;;;;5.05;3.92;;;26.00;99.90;;;;;;5069498;28;20227;-57
2021/06/27 05:37:36;;;;;;;4.28;3.88;;;26.90;99.90;;;;;;5069346;28;20247;-56
2021/06/27 05:40:05;;;;;;;6.82;3.80;;;27.90;99.90;;;;;;5069657;28;20209;-58
2021/06/27 05:42:32;;;;;;;3.78;3.40;;;29.60;98.20;;;;;;5069649;28;20224;-57
2021/06/27 05:44:59;;;;;;;5.88;3.75;;;31.00;93.80;;;;;;5069561;28;20225;-57
2021/06/27 05:47:25;;;;;;;4.57;3.15;;;30.80;91.80;;;;;;5069499;28;20263;-57
2021/06/27 05:49:52;;;;;;;4.13;3.70;;;30.00;92.10;;;;;;5069389;28;20212;-56
2021/06/27 05:52:19;;;;;;;4.38;3.38;;;29.10;92.90;;;;;;5069352;28;20699;-57
2021/06/27 05:54:46;;;;;;;3.97;3.55;;;28.40;93.80;;;;;;5069585;28;20229;-57
2021/06/27 05:57:14;;;;;;;7.40;3.80;;;27.70;95.00;;;;;;5069663;28;20232;-57
2021/06/27 05:59:40;;;;;;;4.00;3.70;;;27.30;96.10;;;;;;5069493;28;20213;-57
2021/06/27 06:02:08;;;;;;;4.80;4.00;;;27.00;96.80;;;;;;5071228;28;20220;-57
2021/06/27 06:04:35;;;;;;;6.05;3.92;;;26.90;97.10;;;;;;5034978;28;1073049;-57
2021/06/27 06:07:01;;;;;;;4.70;3.85;;;27.50;97.00;;;;;;5073745;28;20664;-57
2021/06/27 06:09:28;;;;;;;4.78;3.92;;;28.00;96.00;;;;;;5073583;28;20235;-57
2021/06/27 06:11:55;;;;;;;3.90;3.55;;;28.10;95.60;;;;;;5074028;28;20219;-58
2021/06/27 06:14:23;;;;;;;4.22;3.83;;;28.20;94.70;;;;;;5073685;28;20225;-57
2021/06/27 06:16:49;;;;;;;4.78;3.80;;;28.60;94.10;;;;;;5074145;28;20209;-57
2021/06/27 06:19:20;;;;;;;4.22;3.50;;;28.90;93.50;;;;;;5073855;28;20225;-57
2021/06/27 06:21:47;;;;;;;5.18;3.90;;;29.30;92.50;;;;;;5074053;28;20205;-56
2021/06/27 06:24:14;;;;;;;3.75;3.40;;;30.20;91.00;;;;;;5073518;28;20209;-57
2021/06/27 06:26:41;;;;;;;3.50;3.20;;;31.30;89.00;;;;;;5073802;28;20480;-57
2021/06/27 06:29:08;;;;;;;3.50;3.20;;;32.70;83.90;;;;;;5073514;28;20201;-57
2021/06/27 06:31:36;;;;;;;3.95;3.28;;;33.30;79.30;;;;;;5073715;28;20208;-57
2021/06/27 06:34:02;;;;;;;4.85;3.20;;;33.50;77.00;;;;;;5073960;28;20209;-57
2021/06/27 06:36:30;;;;;;;3.65;2.80;;;34.10;74.40;;;;;;5073921;28;20681;-57
2021/06/27 06:38:57;;;;;;;3.17;2.90;;;35.00;71.10;;;;;;5073835;28;20228;-57
2021/06/27 06:41:24;;;;;;;2.97;2.78;;;35.70;66.20;;;;;;5073692;28;20231;-57
2021/06/27 06:43:51;;;;;;;2.95;2.75;;;35.80;64.80;;;;;;5073438;28;20209;-57
2021/06/27 06:46:17;;;;;;;2.97;2.67;;;35.70;64.00;;;;;;5073223;28;20228;-56
2021/06/27 06:48:45;;;;;;;3.53;2.78;;;35.70;63.00;;;;;;5073312;28;20205;-57
2021/06/27 06:51:12;;;;;;;3.88;2.90;;;36.00;61.80;;;;;;5073376;28;20212;-58
2021/06/27 06:53:39;;;;;;;4.13;2.83;;;36.10;61.00;;;;;;5073219;28;20235;-57
2021/06/27 06:56:05;;;;;;;3.13;2.83;;;36.20;60.10;;;;;;5073085;28;20232;-57
2021/06/27 06:58:32;;;;;;;3.97;2.70;;;36.20;58.80;;;;;;5072636;28;20309;-57
2021/06/27 07:01:00;;;;;;;3.42;3.13;;;36.60;58.50;;;;;;5072918;28;20212;-56
2021/06/27 07:03:27;;;;;;;4.03;2.90;;;36.20;59.00;;;;;;5072930;28;20208;-58
2021/06/27 07:05:56;;;;;;;3.17;2.88;;;36.70;58.20;;;;;;5072647;28;20255;-58
2021/06/27 07:08:22;;;;;;;4.03;2.70;;;37.10;56.60;;;;;;5073186;28;20266;-57
2021/06/27 07:10:49;;;;;;;6.38;3.05;;;37.80;55.70;;;;;;5072866;28;20205;-57
2021/06/27 07:13:16;;;;;;;3.55;2.63;;;38.30;54.60;;;;;;5071961;28;20584;-58
2021/06/27 07:15:43;;;;;;;3.10;2.80;;;38.60;54.30;;;;;;5072366;28;20236;-57
2021/06/27 07:18:09;;;;;;;2.80;2.60;;;39.10;52.80;;;;;;5072359;28;20704;-58
2021/06/27 07:20:36;;;;;;;2.88;2.67;;;38.90;51.10;;;;;;5073252;28;20204;-58
2021/06/27 07:23:04;;;;;;;2.78;2.58;;;38.40;52.50;;;;;;5072867;28;20239;-58
2021/06/27 07:25:31;;;;;;;3.10;2.58;;;38.00;52.80;;;;;;5072392;28;20232;-58
2021/06/27 07:27:58;;;;;;;2.80;2.55;;;38.00;52.90;;;;;;5072665;28;20201;-57
2021/06/27 07:30:25;;;;;;;2.60;2.40;;;38.50;52.60;;;;;;5072819;28;20205;-58
2021/06/27 07:32:51;;;;;;;3.65;2.55;;;39.00;51.70;;;;;;5072587;28;20236;-58
2021/06/27 07:35:18;;;;;;;2.58;2.38;;;39.70;50.00;;;;;;5072369;28;20274;-57
2021/06/27 07:37:45;;;;;;;2.47;2.28;;;40.10;48.80;;;;;;5072461;28;20224;-58
2021/06/27 07:40:15;;;;;;;4.28;2.67;;;40.30;48.30;;;;;;5072671;28;20219;-58
2021/06/27 07:42:42;;;;;;;3.00;2.80;;;40.50;48.10;;;;;;5072721;28;20201;-58
2021/06/27 07:45:10;;;;;;;2.80;2.50;;;41.10;47.20;;;;;;5072600;28;20316;-60
2021/06/27 07:47:37;;;;;;;2.50;2.30;;;42.00;45.70;;;;;;5072804;28;20212;-61
2021/06/27 07:50:04;;;;;;;4.28;3.00;;;42.50;44.90;;;;;;5072536;28;20213;-63
2021/06/27 07:52:31;;;;;;;3.65;2.90;;;42.90;44.10;;;;;;5072526;28;20204;-64
2021/06/27 07:54:58;;;;;;;3.78;2.35;;;42.60;44.00;;;;;;5072430;28;20229;-62
2021/06/27 07:57:26;;;;;;;4.60;4.20;;;41.50;45.70;;;;;;5072235;28;20569;-63
2021/06/27 07:59:52;;;;;;;2.95;2.60;;;40.10;46.70;;;;;;5072131;28;20225;-63
2021/06/27 08:02:19;;;;;;;2.70;2.50;;;39.20;47.70;;;;;;5072306;28;20208;-63
2021/06/27 08:04:46;;;;;;;4.47;3.10;;;38.80;49.00;;;;;;5072410;28;20266;-65
2021/06/27 08:07:12;;;;;;;3.90;2.47;;;39.60;48.20;;;;;;5072246;28;20201;-65
2021/06/27 08:09:39;;;;;;;2.63;2.42;;;40.80;46.40;;;;;;5072019;28;20223;-64
2021/06/27 08:12:07;;;;;;;2.45;2.25;;;41.80;44.20;;;;;;5071913;28;20612;-65
2021/06/27 08:14:35;;;;;;;3.45;2.15;;;42.20;43.90;;;;;;5071897;28;20228;-64
2021/06/27 08:17:02;;;;;;;2.33;2.13;;;42.20;43.10;;;;;;5071961;28;20673;-65
2021/06/27 08:19:28;;;;;;;2.78;2.58;;;41.40;44.30;;;;;;5071848;28;20231;-64
2021/06/27 08:21:55;;;;;;;2.45;2.25;;;41.00;45.00;;;;;;5071972;28;20209;-64
2021/06/27 08:24:22;;;;;;;3.95;2.35;;;41.00;44.30;;;;;;5071571;28;20232;-65
2021/06/27 08:26:50;;;;;;;2.47;2.28;;;40.70;44.80;;;;;;5071989;28;20677;-65
2021/06/27 08:29:17;;;;;;;2.85;2.25;;;40.70;45.20;;;;;;5072746;28;20251;-63
2021/06/27 08:31:45;;;;;;;3.63;2.25;;;41.20;43.60;;;;;;5074434;28;20224;-64
2021/06/27 08:34:12;;;;;;;2.50;2.30;;;41.10;43.40;;;;;;5073264;28;20208;-64
2021/06/27 08:36:39;;;;;;;2.90;2.30;;;40.90;43.50;;;;;;5072072;28;20208;-64
2021/06/27 08:39:06;;;;;;;2.35;2.10;;;40.60;43.90;;;;;;5071893;28;20585;-65
2021/06/27 08:41:33;;;;;;;2.40;2.20;;;39.80;45.90;;;;;;5071859;28;20209;-65
2021/06/27 08:44:01;;;;;;;2.30;2.10;;;40.10;44.80;;;;;;5071713;28;20691;-65
2021/06/27 08:46:29;;;;;;;2.72;2.15;;;39.60;44.90;;;;;;5071573;28;20205;-65
2021/06/27 08:48:59;;;;;;;2.92;2.50;;;39.10;46.20;;;;;;5071295;28;20695;-64
2021/06/27 08:51:26;;;;;;;2.15;2.05;;;39.00;46.20;;;;;;5071427;28;20213;-65
2021/06/27 08:53:53;;;;;;;2.65;2.40;;;38.40;47.30;;;;;;5071376;28;20211;-64
2021/06/27 08:56:20;;;;;;;2.50;2.30;;;37.20;49.10;;;;;;5071247;28;20236;-60
2021/06/27 08:58:47;;;;;;;2.60;2.40;;;35.70;51.70;;;;;;5071003;28;20223;-61
2021/06/27 09:01:15;;;;;;;2.47;2.28;;;34.30;54.00;;;;;;5071146;28;20749;-62
2021/06/27 09:03:43;;;;;;;2.60;2.40;;;33.20;55.80;;;;;;5070866;28;20629;-62
2021/06/27 09:06:11;;;;;;;2.67;2.30;;;32.10;57.60;;;;;;5071248;28;20239;-62
2021/06/27 09:08:38;;;;;;;2.90;2.65;;;31.10;60.10;;;;;;5070991;28;20201;-61
2021/06/27 09:11:15;;;;;;;2.85;2.55;;;30.20;62.50;;;;;;5071150;28;20204;-61
2021/06/27 09:13:44;;;;;;;2.92;2.72;;;29.40;64.90;;;;;;5070813;28;20250;-61
2021/06/27 09:16:20;;;;;;;2.70;2.50;;;28.70;67.50;;;;;;5070620;28;20232;-59
2021/06/27 09:18:48;;;;;;;5.00;2.40;;;28.30;69.60;;;;;;5070640;28;20692;-61
2021/06/27 09:21:17;;;;;;;3.83;2.75;;;28.00;70.10;;;;;;5071083;28;20208;-59
2021/06/27 09:23:45;;;;;;;4.95;2.53;;;27.80;71.10;;;;;;5070799;28;20208;-61
2021/06/27 09:26:14;;;;;;;3.17;2.63;;;27.90;71.50;;;;;;5070665;28;20716;-61
2021/06/27 09:28:44;;;;;;;2.90;2.60;;;27.90;71.50;;;;;;5070534;28;20247;-60
2021/06/27 09:31:11;;;;;;;2.67;2.35;;;27.90;72.40;;;;;;5072104;28;20201;-60
2021/06/27 09:33:38;;;;;;;3.05;2.45;;;27.90;71.80;;;;;;5071111;28;20208;-61
2021/06/27 09:36:06;;;;;;;4.18;2.15;;;27.90;70.80;;;;;;5071101;28;20232;-61
2021/06/27 09:38:38;;;;;;;2.50;2.25;;;27.80;70.90;;;;;;5074542;28;20224;-61
2021/06/27 09:41:08;;;;;;;2.60;2.40;;;28.00;70.90;;;;;;5074517;28;20205;-60
2021/06/27 09:43:36;;;;;;;3.60;2.53;;;28.30;70.40;;;;;;5074211;28;20669;-62
2021/06/27 09:46:12;;;;;;;3.10;2.35;;;28.40;70.10;;;;;;5074317;28;20231;-60
2021/06/27 09:48:50;;;;;;;2.25;2.05;;;28.50;68.00;;;;;;5074584;28;20664;-62
2021/06/27 09:51:17;;;;;;;3.10;2.80;;;28.40;69.70;;;;;;5074896;28;20696;-63
2021/06/27 09:53:47;;;;;;;4.15;2.95;;;28.30;71.30;;;;;;5074180;28;20212;-63
2021/06/27 09:56:14;;;;;;;2.75;2.30;;;28.40;72.00;;;;;;5074665;28;20228;-60
2021/06/27 09:58:58;;;;;;;4.50;2.55;;;28.50;70.70;;;;;;5074384;28;20228;-61
2021/06/27 10:01:26;;;;;;;2.50;2.30;;;28.40;71.20;;;;;;5074590;28;20583;-60
2021/06/27 10:03:55;;;;;;;2.30;2.10;;;28.30;71.20;;;;;;5074657;28;20235;-60
2021/06/27 10:06:23;;;;;;;2.13;1.98;;;28.30;72.30;;;;;;5073949;28;20256;-59
2021/06/27 10:08:51;;;;;;;3.45;2.40;;;28.30;70.20;;;;;;5074213;28;20205;-62
2021/06/27 10:11:19;;;;;;;2.58;2.17;;;28.30;69.60;;;;;;5074056;28;20200;-60
2021/06/27 10:13:47;;;;;;;2.67;2.22;;;28.40;68.80;;;;;;5074289;28;20204;-61
2021/06/27 10:16:27;;;;;;;3.00;2.30;;;28.40;69.00;;;;;;5074133;28;20274;-60
2021/06/27 10:18:54;;;;;;;4.50;2.72;;;28.50;68.50;;;;;;5073993;28;20224;-61
2021/06/27 10:21:21;;;;;;;2.10;1.90;;;28.70;67.70;;;;;;5074370;28;20205;-61
2021/06/27 10:23:49;;;;;;;2.95;2.17;;;28.80;68.70;;;;;;5073915;28;20255;-61
2021/06/27 10:26:19;;;;;;;4.45;2.60;;;28.80;68.50;;;;;;5073920;28;20243;-60
2021/06/27 10:28:47;;;;;;;2.40;2.20;;;28.80;68.60;;;;;;5073744;28;20208;-62
2021/06/27 10:31:15;;;;;;;2.20;2.00;;;28.90;68.20;;;;;;5074038;28;20232;-59
2021/06/27 10:33:45;;;;;;;2.72;2.53;;;28.90;67.70;;;;;;5074249;28;20205;-61
2021/06/27 10:36:13;;;;;;;3.40;2.22;;;28.80;67.30;;;;;;5073867;28;20225;-60
2021/06/27 10:38:42;;;;;;;3.50;2.15;;;29.00;67.90;;;;;;5073447;28;20225;-61
2021/06/27 10:41:09;;;;;;;2.10;1.90;;;29.20;66.30;;;;;;5073731;28;20209;-61
2021/06/27 10:44:05;;;;;;;2.50;2.30;;;29.30;66.70;;;;;;5073650;28;20675;-61
2021/06/27 10:46:37;;;;;;;3.28;2.22;;;29.50;65.90;;;;;;5073813;28;20311;-60
2021/06/27 10:49:06;;;;;;;2.35;2.15;;;29.40;65.60;;;;;;5072216;28;20200;-61
2021/06/27 10:52:01;;;;;;;1.98;1.85;;;29.40;65.30;;;;;;5073497;28;20215;-60
2021/06/27 10:54:29;;;;;;;2.65;2.20;;;29.60;65.50;;;;;;5073087;28;20247;-59
2021/06/27 10:57:00;;;;;;;2.00;1.85;;;29.90;63.10;;;;;;5073531;28;20240;-59
2021/06/27 11:00:00;;;;;;;2.10;1.90;;;30.30;60.70;;;;;;5072958;28;20225;-59
2021/06/27 11:02:37;;;;;;;5.28;2.15;;;30.90;60.40;;;;;;5073138;28;20633;-60
2021/06/27 11:05:45;;;;;;;1.85;1.75;;;31.50;59.30;;;;;;5073332;28;20480;-60
2021/06/27 11:08:29;;;;;;;1.88;1.77;;;31.90;58.00;;;;;;5068374;28;20573;-60
2021/06/27 11:11:00;;;;;;;1.95;1.75;;;32.10;56.80;;;;;;5073214;28;20277;-60
2021/06/27 11:13:27;;;;;;;6.72;6.10;;;32.10;56.90;;;;;;5073208;28;20472;-60
2021/06/27 11:16:04;;;;;;;2.15;1.95;;;32.20;57.20;;;;;;5072909;28;20282;-59
2021/06/27 11:18:33;;;;;;;2.72;1.92;;;32.30;56.60;;;;;;5072934;28;20217;-60
2021/06/27 11:21:23;;;;;;;2.40;1.80;;;32.20;56.30;;;;;;5073106;28;20205;-60
2021/06/27 11:23:56;;;;;;;2.47;1.80;;;31.90;56.80;;;;;;5068822;28;20262;-60
2021/06/27 11:26:57;;;;;;;2.65;1.70;;;32.00;55.60;;;;;;5072829;28;20232;-60
2021/06/27 11:29:43;;;;;;;2.25;1.73;;;32.00;55.50;;;;;;5072464;28;20203;-60
2021/06/27 11:32:49;;;;;;;2.25;1.80;;;31.80;54.90;;;;;;5072517;28;20201;-59
2021/06/27 11:35:49;;;;;;;1.70;1.58;;;31.50;55.20;;;;;;5072487;28;20229;-59
2021/06/27 11:38:40;;;;;;;2.00;1.60;;;31.30;54.70;;;;;;5072877;28;20200;-60
2021/06/27 11:41:08;;;;;;;2.13;1.70;;;31.40;54.10;;;;;;5072753;28;20205;-59
2021/06/27 11:43:56;;;;;;;1.58;1.48;;;31.30;55.00;;;;;;5071857;28;20201;-59
2021/06/27 11:46:34;;;;;;;3.05;1.83;;;31.10;55.30;;;;;;5072035;28;20716;-59
2021/06/27 11:49:06;;;;;;;2.03;1.75;;;31.10;55.80;;;;;;5072510;28;20283;-59
2021/06/27 11:51:39;;;;;;;2.35;1.70;;;31.30;55.90;;;;;;5072539;28;20201;-60
2021/06/27 11:54:07;;;;;;;1.98;1.77;;;31.40;54.90;;;;;;5072283;28;20596;-60
2021/06/27 11:56:53;;;;;;;1.80;1.70;;;31.30;55.60;;;;;;5072156;28;20232;-60
2021/06/27 11:59:20;;;;;;;3.33;1.48;;;31.20;55.50;;;;;;5071825;28;20230;-60
2021/06/27 12:02:09;;;;;;;4.32;2.08;;;31.00;55.80;;;;;;5072378;28;20213;-59
2021/06/27 12:04:42;;;;;;;1.80;1.52;;;30.70;55.60;;;;;;5072142;28;20237;-59
2021/06/27 12:07:32;;;;;;;1.65;1.55;;;30.70;56.00;;;;;;5072115;28;20205;-59
2021/06/27 12:10:01;;;;;;;1.92;1.70;;;30.80;55.90;;;;;;5072268;28;20209;-59
2021/06/27 12:12:39;;;;;;;3.38;1.70;;;30.80;55.60;;;;;;5072132;28;20211;-59
2021/06/27 12:15:09;;;;;;;2.00;1.73;;;30.70;56.00;;;;;;5071954;28;20232;-59
2021/06/27 12:17:35;;;;;;;1.90;1.70;;;30.80;54.80;;;;;;5071903;28;20205;-59
2021/06/27 12:20:04;;;;;;;1.98;1.50;;;30.90;55.70;;;;;;5072047;28;20231;-59
2021/06/27 12:22:32;;;;;;;2.28;2.08;;;31.00;55.40;;;;;;5072085;28;20208;-59
2021/06/27 12:25:03;;;;;;;1.80;1.70;;;31.20;55.70;;;;;;5071798;28;20225;-59
2021/06/27 12:27:30;;;;;;;2.05;1.85;;;31.20;55.20;;;;;;5071829;28;20227;-59
2021/06/27 12:29:57;;;;;;;2.13;1.92;;;31.20;55.30;;;;;;5071261;28;20216;-59
2021/06/27 12:32:24;;;;;;;2.08;1.70;;;31.20;54.80;;;;;;5071656;28;20273;-59
2021/06/27 12:34:51;;;;;;;2.20;2.00;;;31.20;52.80;;;;;;5071642;28;20228;-58
2021/06/27 12:37:19;;;;;;;1.75;1.65;;;31.30;52.60;;;;;;5071425;28;20205;-60
2021/06/27 12:39:46;;;;;;;5.35;1.83;;;31.30;54.50;;;;;;5071216;28;20338;-59
2021/06/27 12:42:15;;;;;;;3.90;3.60;;;31.30;54.20;;;;;;5071520;28;20204;-59
2021/06/27 12:44:43;;;;;;;1.95;1.80;;;31.30;54.20;;;;;;5070941;28;20232;-59
2021/06/27 12:47:10;;;;;;;2.03;1.60;;;31.40;53.50;;;;;;5071053;28;20208;-59
2021/06/27 12:49:37;;;;;;;1.63;1.52;;;31.50;54.40;;;;;;5071025;28;20201;-60
2021/06/27 12:52:05;;;;;;;2.67;1.75;;;31.40;53.40;;;;;;5070945;28;20205;-59
2021/06/27 12:54:35;;;;;;;1.70;1.60;;;31.10;53.50;;;;;;5070860;28;20232;-59